sensor_id;sensor_type;location;lat;lon;timestamp;temperature;humidity
25154;DHT22;47555;51.038;6.280;2023-07-22T00:00:49;11.10;99.90
25154;DHT22;47555;51.038;6.280;2023-07-22T00:03:15;11.10;99.90
25154;DHT22;47555;51.038;6.280;2023-07-22T00:05:41;11.10;99.90
25154;DHT22;47555;51.038;6.280;2023-07-22T00:08:07;11.10;99.90
25154;DHT22;47555;51.038;6.280;2023-07-22T00:10:33;11.00;99.90
25154;DHT22;47555;51.038;6.280;2023-07-22T00:12:58;11.00;99.90
25154;DHT22;47555;51.038;6.280;2023-07-22T00:15:24;11.00;99.90
25154;DHT22;47555;51.038;6.280;2023-07-22T00:17:50;10.90;99.90
25154;DHT22;47555;51.038;6.280;2023-07-22T00:20:20;10.90;99.90
25154;DHT22;47555;51.038;6.280;2023-07-22T00:22:46;11.00;99.90
25154;DHT22;47555;51.038;6.280;2023-07-22T00:25:12;10.90;99.90
25154;DHT22;47555;51.038;6.280;2023-07-22T00:27:39;10.90;99.90
25154;DHT22;47555;51.038;6.280;2023-07-22T00:30:08;10.90;99.90
25154;DHT22;47555;51.038;6.280;2023-07-22T00:32:35;10.80;99.90
25154;DHT22;47555;51.038;6.280;2023-07-22T00:35:04;10.90;99.90
25154;DHT22;47555;51.038;6.280;2023-07-22T00:37:31;10.80;99.90
25154;DHT22;47555;51.038;6.280;2023-07-22T00:39:56;10.80;99.90
25154;DHT22;47555;51.038;6.280;2023-07-22T00:42:22;10.80;99.90
25154;DHT22;47555;51.038;6.280;2023-07-22T00:44:47;10.80;99.90
25154;DHT22;47555;51.038;6.280;2023-07-22T00:47:13;10.70;99.90
25154;DHT22;47555;51.038;6.280;2023-07-22T00:49:39;10.70;99.90
25154;DHT22;47555;51.038;6.280;2023-07-22T00:52:05;10.70;99.90
25154;DHT22;47555;51.038;6.280;2023-07-22T00:54:31;10.70;99.90
25154;DHT22;47555;51.038;6.280;2023-07-22T00:56:57;10.70;99.90
25154;DHT22;47555;51.038;6.280;2023-07-22T00:59:23;10.60;99.90
25154;DHT22;47555;51.038;6.280;2023-07-22T01:01:49;10.60;99.90
25154;DHT22;47555;51.038;6.280;2023-07-22T01:04:15;10.60;99.90
25154;DHT22;47555;51.038;6.280;2023-07-22T01:06:43;10.60;99.90
25154;DHT22;47555;51.038;6.280;2023-07-22T01:09:09;10.60;99.90
25154;DHT22;47555;51.038;6.280;2023-07-22T01:11:35;10.50;99.90
25154;DHT22;47555;51.038;6.280;2023-07-22T01:14:01;10.50;99.90
25154;DHT22;47555;51.038;6.280;2023-07-22T01:16:27;10.50;99.90
25154;DHT22;47555;51.038;6.280;2023-07-22T01:18:53;10.50;99.90
25154;DHT22;47555;51.038;6.280;2023-07-22T01:21:23;10.50;99.90
25154;DHT22;47555;51.038;6.280;2023-07-22T01:23:50;10.50;99.90
25154;DHT22;47555;51.038;6.280;2023-07-22T01:26:16;10.40;99.90
25154;DHT22;47555;51.038;6.280;2023-07-22T01:28:42;10.40;99.90
25154;DHT22;47555;51.038;6.280;2023-07-22T01:31:08;10.40;99.90
25154;DHT22;47555;51.038;6.280;2023-07-22T01:33:33;10.50;99.90
25154;DHT22;47555;51.038;6.280;2023-07-22T01:36:00;10.50;99.90
25154;DHT22;47555;51.038;6.280;2023-07-22T01:38:25;10.50;99.90
25154;DHT22;47555;51.038;6.280;2023-07-22T01:40:51;10.50;99.90
25154;DHT22;47555;51.038;6.280;2023-07-22T01:43:17;10.50;99.90
25154;DHT22;47555;51.038;6.280;2023-07-22T01:45:42;10.50;99.90
25154;DHT22;47555;51.038;6.280;2023-07-22T01:48:08;10.50;99.90
25154;DHT22;47555;51.038;6.280;2023-07-22T01:50:34;10.50;99.90
25154;DHT22;47555;51.038;6.280;2023-07-22T01:52:59;10.40;99.90
25154;DHT22;47555;51.038;6.280;2023-07-22T01:55:25;10.40;99.90
25154;DHT22;47555;51.038;6.280;2023-07-22T01:57:51;10.40;99.90
25154;DHT22;47555;51.038;6.280;2023-07-22T02:00:17;10.40;99.90
25154;DHT22;47555;51.038;6.280;2023-07-22T02:02:42;10.30;99.90
25154;DHT22;47555;51.038;6.280;2023-07-22T02:05:09;10.40;99.90
25154;DHT22;47555;51.038;6.280;2023-07-22T02:07:43;10.40;99.90
25154;DHT22;47555;51.038;6.280;2023-07-22T02:10:10;10.40;99.90
25154;DHT22;47555;51.038;6.280;2023-07-22T02:12:38;10.40;99.90
25154;DHT22;47555;51.038;6.280;2023-07-22T02:15:04;10.40;99.90
25154;DHT22;47555;51.038;6.280;2023-07-22T02:17:30;10.40;99.90
25154;DHT22;47555;51.038;6.280;2023-07-22T02:19:56;10.40;99.90
25154;DHT22;47555;51.038;6.280;2023-07-22T02:22:23;10.40;99.90
25154;DHT22;47555;51.038;6.280;2023-07-22T02:24:48;10.40;99.90
25154;DHT22;47555;51.038;6.280;2023-07-22T02:27:14;10.40;99.90
25154;DHT22;47555;51.038;6.280;2023-07-22T02:29:46;10.40;99.90
25154;DHT22;47555;51.038;6.280;2023-07-22T02:32:12;10.50;99.90
25154;DHT22;47555;51.038;6.280;2023-07-22T02:34:37;10.50;99.90
25154;DHT22;47555;51.038;6.280;2023-07-22T02:37:04;10.50;99.90
25154;DHT22;47555;51.038;6.280;2023-07-22T02:39:29;10.50;99.90
25154;DHT22;47555;51.038;6.280;2023-07-22T02:41:55;10.50;99.90
25154;DHT22;47555;51.038;6.280;2023-07-22T02:44:20;10.50;99.90
25154;DHT22;47555;51.038;6.280;2023-07-22T02:46:46;10.50;99.90
25154;DHT22;47555;51.038;6.280;2023-07-22T02:49:11;10.50;99.90
25154;DHT22;47555;51.038;6.280;2023-07-22T02:51:37;10.50;99.90
25154;DHT22;47555;51.038;6.280;2023-07-22T02:54:03;10.50;99.90
25154;DHT22;47555;51.038;6.280;2023-07-22T02:56:29;10.40;99.90
25154;DHT22;47555;51.038;6.280;2023-07-22T02:58:54;10.50;99.90
25154;DHT22;47555;51.038;6.280;2023-07-22T03:01:20;10.50;99.90
25154;DHT22;47555;51.038;6.280;2023-07-22T03:03:45;10.50;99.90
25154;DHT22;47555;51.038;6.280;2023-07-22T03:06:11;10.50;99.90
25154;DHT22;47555;51.038;6.280;2023-07-22T03:08:37;10.50;99.90
25154;DHT22;47555;51.038;6.280;2023-07-22T03:11:02;10.60;99.90
25154;DHT22;47555;51.038;6.280;2023-07-22T03:13:38;10.60;99.90
25154;DHT22;47555;51.038;6.280;2023-07-22T03:16:04;10.60;99.90
25154;DHT22;47555;51.038;6.280;2023-07-22T03:18:30;10.60;99.90
25154;DHT22;47555;51.038;6.280;2023-07-22T03:20:57;10.60;99.90
25154;DHT22;47555;51.038;6.280;2023-07-22T03:23:22;10.60;99.90
25154;DHT22;47555;51.038;6.280;2023-07-22T03:25:48;10.70;99.90
25154;DHT22;47555;51.038;6.280;2023-07-22T03:28:17;10.70;99.90
25154;DHT22;47555;51.038;6.280;2023-07-22T03:30:42;10.70;99.90
25154;DHT22;47555;51.038;6.280;2023-07-22T03:33:13;10.70;99.90
25154;DHT22;47555;51.038;6.280;2023-07-22T03:35:40;10.80;99.90
25154;DHT22;47555;51.038;6.280;2023-07-22T03:38:06;10.80;99.90
25154;DHT22;47555;51.038;6.280;2023-07-22T03:40:31;10.80;99.90
25154;DHT22;47555;51.038;6.280;2023-07-22T03:42:58;10.90;99.90
25154;DHT22;47555;51.038;6.280;2023-07-22T03:45:23;10.90;99.90
25154;DHT22;47555;51.038;6.280;2023-07-22T03:47:55;10.90;99.90
25154;DHT22;47555;51.038;6.280;2023-07-22T03:50:21;11.00;99.90
25154;DHT22;47555;51.038;6.280;2023-07-22T03:52:47;11.00;99.90
25154;DHT22;47555;51.038;6.280;2023-07-22T03:55:12;11.10;99.90
25154;DHT22;47555;51.038;6.280;2023-07-22T03:57:38;11.10;99.90
25154;DHT22;47555;51.038;6.280;2023-07-22T04:00:05;11.10;99.90
25154;DHT22;47555;51.038;6.280;2023-07-22T04:02:34;11.10;99.90
25154;DHT22;47555;51.038;6.280;2023-07-22T04:05:00;11.10;99.90
25154;DHT22;47555;51.038;6.280;2023-07-22T04:07:25;11.10;99.90
25154;DHT22;47555;51.038;6.280;2023-07-22T04:09:51;11.20;99.90
25154;DHT22;47555;51.038;6.280;2023-07-22T04:12:16;11.20;99.90
25154;DHT22;47555;51.038;6.280;2023-07-22T04:14:42;11.20;99.90
25154;DHT22;47555;51.038;6.280;2023-07-22T04:17:08;11.20;99.90
25154;DHT22;47555;51.038;6.280;2023-07-22T04:19:34;11.30;99.90
25154;DHT22;47555;51.038;6.280;2023-07-22T04:21:59;11.30;99.90
25154;DHT22;47555;51.038;6.280;2023-07-22T04:24:32;11.30;99.90
25154;DHT22;47555;51.038;6.280;2023-07-22T04:26:58;11.40;99.90
25154;DHT22;47555;51.038;6.280;2023-07-22T04:29:26;11.40;99.90
25154;DHT22;47555;51.038;6.280;2023-07-22T04:31:51;11.50;99.90
25154;DHT22;47555;51.038;6.280;2023-07-22T04:34:17;11.50;99.90
25154;DHT22;47555;51.038;6.280;2023-07-22T04:36:42;11.60;99.90
25154;DHT22;47555;51.038;6.280;2023-07-22T04:39:08;11.60;99.90
25154;DHT22;47555;51.038;6.280;2023-07-22T04:41:34;11.70;99.90
25154;DHT22;47555;51.038;6.280;2023-07-22T04:44:00;11.70;99.90
25154;DHT22;47555;51.038;6.280;2023-07-22T04:46:26;11.70;99.90
25154;DHT22;47555;51.038;6.280;2023-07-22T04:48:55;11.80;99.90
25154;DHT22;47555;51.038;6.280;2023-07-22T04:51:21;11.90;99.90
25154;DHT22;47555;51.038;6.280;2023-07-22T04:53:47;11.90;99.90
25154;DHT22;47555;51.038;6.280;2023-07-22T04:56:12;11.90;99.90
25154;DHT22;47555;51.038;6.280;2023-07-22T04:58:38;11.90;99.90
25154;DHT22;47555;51.038;6.280;2023-07-22T05:01:04;12.00;99.90
25154;DHT22;47555;51.038;6.280;2023-07-22T05:03:30;12.00;99.90
25154;DHT22;47555;51.038;6.280;2023-07-22T05:05:56;12.10;99.90
25154;DHT22;47555;51.038;6.280;2023-07-22T05:08:23;12.10;99.90
25154;DHT22;47555;51.038;6.280;2023-07-22T05:10:48;12.20;99.90
25154;DHT22;47555;51.038;6.280;2023-07-22T05:13:14;12.30;99.90
25154;DHT22;47555;51.038;6.280;2023-07-22T05:15:39;12.40;99.90
25154;DHT22;47555;51.038;6.280;2023-07-22T05:18:05;12.50;99.90
25154;DHT22;47555;51.038;6.280;2023-07-22T05:20:31;12.70;99.90
25154;DHT22;47555;51.038;6.280;2023-07-22T05:22:56;12.80;99.90
25154;DHT22;47555;51.038;6.280;2023-07-22T05:25:22;12.90;99.90
25154;DHT22;47555;51.038;6.280;2023-07-22T05:27:48;13.10;99.90
25154;DHT22;47555;51.038;6.280;2023-07-22T05:30:13;13.10;99.90
25154;DHT22;47555;51.038;6.280;2023-07-22T05:32:39;13.30;99.90
25154;DHT22;47555;51.038;6.280;2023-07-22T05:35:05;13.40;99.90
25154;DHT22;47555;51.038;6.280;2023-07-22T05:37:31;13.60;99.90
25154;DHT22;47555;51.038;6.280;2023-07-22T05:39:56;13.80;99.90
25154;DHT22;47555;51.038;6.280;2023-07-22T05:42:22;13.90;99.90
25154;DHT22;47555;51.038;6.280;2023-07-22T05:44:48;14.00;99.90
25154;DHT22;47555;51.038;6.280;2023-07-22T05:47:14;14.20;99.90
25154;DHT22;47555;51.038;6.280;2023-07-22T05:49:39;14.30;99.90
25154;DHT22;47555;51.038;6.280;2023-07-22T05:52:06;14.50;99.90
25154;DHT22;47555;51.038;6.280;2023-07-22T05:54:31;14.70;99.90
25154;DHT22;47555;51.038;6.280;2023-07-22T05:56:57;14.90;99.90
25154;DHT22;47555;51.038;6.280;2023-07-22T05:59:22;15.10;99.90
25154;DHT22;47555;51.038;6.280;2023-07-22T06:01:48;15.20;99.90
25154;DHT22;47555;51.038;6.280;2023-07-22T06:04:13;15.30;99.40
25154;DHT22;47555;51.038;6.280;2023-07-22T06:06:39;15.50;98.70
25154;DHT22;47555;51.038;6.280;2023-07-22T06:09:05;15.50;98.40
25154;DHT22;47555;51.038;6.280;2023-07-22T06:11:30;15.50;97.90
25154;DHT22;47555;51.038;6.280;2023-07-22T06:13:56;15.50;97.50
25154;DHT22;47555;51.038;6.280;2023-07-22T06:16:25;15.60;98.60
25154;DHT22;47555;51.038;6.280;2023-07-22T06:18:50;15.70;96.90
25154;DHT22;47555;51.038;6.280;2023-07-22T06:21:16;15.80;96.20
25154;DHT22;47555;51.038;6.280;2023-07-22T06:23:41;15.80;96.20
25154;DHT22;47555;51.038;6.280;2023-07-22T06:26:07;15.90;96.00
25154;DHT22;47555;51.038;6.280;2023-07-22T06:28:33;15.90;95.20
25154;DHT22;47555;51.038;6.280;2023-07-22T06:30:58;15.90;95.10
25154;DHT22;47555;51.038;6.280;2023-07-22T06:33:24;16.10;95.30
25154;DHT22;47555;51.038;6.280;2023-07-22T06:35:49;16.00;93.60
25154;DHT22;47555;51.038;6.280;2023-07-22T06:38:15;16.00;94.30
25154;DHT22;47555;51.038;6.280;2023-07-22T06:40:40;16.00;94.30
25154;DHT22;47555;51.038;6.280;2023-07-22T06:43:09;16.10;94.60
25154;DHT22;47555;51.038;6.280;2023-07-22T06:45:35;16.20;94.20
25154;DHT22;47555;51.038;6.280;2023-07-22T06:48:00;16.20;93.70
25154;DHT22;47555;51.038;6.280;2023-07-22T06:50:26;16.20;93.10
25154;DHT22;47555;51.038;6.280;2023-07-22T06:52:51;16.30;92.80
25154;DHT22;47555;51.038;6.280;2023-07-22T06:55:17;16.30;93.30
25154;DHT22;47555;51.038;6.280;2023-07-22T06:57:42;16.40;93.10
25154;DHT22;47555;51.038;6.280;2023-07-22T07:00:09;16.60;93.80
25154;DHT22;47555;51.038;6.280;2023-07-22T07:02:35;16.60;92.50
25154;DHT22;47555;51.038;6.280;2023-07-22T07:05:01;16.60;92.20
25154;DHT22;47555;51.038;6.280;2023-07-22T07:07:29;16.60;92.90
25154;DHT22;47555;51.038;6.280;2023-07-22T07:09:54;16.70;94.20
25154;DHT22;47555;51.038;6.280;2023-07-22T07:12:20;16.90;94.10
25154;DHT22;47555;51.038;6.280;2023-07-22T07:14:46;17.00;93.20
25154;DHT22;47555;51.038;6.280;2023-07-22T07:17:11;17.30;94.00
25154;DHT22;47555;51.038;6.280;2023-07-22T07:19:37;17.60;92.00
25154;DHT22;47555;51.038;6.280;2023-07-22T07:22:02;17.80;89.10
25154;DHT22;47555;51.038;6.280;2023-07-22T07:24:28;18.00;87.80
25154;DHT22;47555;51.038;6.280;2023-07-22T07:26:54;18.00;86.00
25154;DHT22;47555;51.038;6.280;2023-07-22T07:29:19;18.00;86.90
25154;DHT22;47555;51.038;6.280;2023-07-22T07:31:45;18.30;87.90
25154;DHT22;47555;51.038;6.280;2023-07-22T07:34:10;18.60;86.80
25154;DHT22;47555;51.038;6.280;2023-07-22T07:36:36;18.90;81.50
25154;DHT22;47555;51.038;6.280;2023-07-22T07:39:01;19.10;78.90
25154;DHT22;47555;51.038;6.280;2023-07-22T07:41:28;19.20;80.30
25154;DHT22;47555;51.038;6.280;2023-07-22T07:43:54;19.30;78.50
25154;DHT22;47555;51.038;6.280;2023-07-22T07:46:25;19.40;79.00
25154;DHT22;47555;51.038;6.280;2023-07-22T07:48:53;19.70;75.30
25154;DHT22;47555;51.038;6.280;2023-07-22T07:51:20;19.90;75.00
25154;DHT22;47555;51.038;6.280;2023-07-22T07:53:46;20.20;72.20
25154;DHT22;47555;51.038;6.280;2023-07-22T07:56:13;20.40;68.90
25154;DHT22;47555;51.038;6.280;2023-07-22T07:58:39;20.60;63.10
25154;DHT22;47555;51.038;6.280;2023-07-22T08:01:05;20.70;61.90
25154;DHT22;47555;51.038;6.280;2023-07-22T08:03:32;20.80;60.90
25154;DHT22;47555;51.038;6.280;2023-07-22T08:05:58;20.80;58.80
25154;DHT22;47555;51.038;6.280;2023-07-22T08:08:24;20.80;54.40
25154;DHT22;47555;51.038;6.280;2023-07-22T08:13:25;20.90;54.20
25154;DHT22;47555;51.038;6.280;2023-07-22T08:15:55;20.80;52.60
25154;DHT22;47555;51.038;6.280;2023-07-22T08:18:21;20.90;49.80
25154;DHT22;47555;51.038;6.280;2023-07-22T08:20:46;20.90;50.10
25154;DHT22;47555;51.038;6.280;2023-07-22T08:23:13;20.90;49.80
25154;DHT22;47555;51.038;6.280;2023-07-22T08:25:39;20.80;50.00
25154;DHT22;47555;51.038;6.280;2023-07-22T08:28:04;20.80;51.80
25154;DHT22;47555;51.038;6.280;2023-07-22T08:30:30;20.70;54.10
25154;DHT22;47555;51.038;6.280;2023-07-22T08:32:58;20.80;52.80
25154;DHT22;47555;51.038;6.280;2023-07-22T08:35:24;20.80;53.40
25154;DHT22;47555;51.038;6.280;2023-07-22T08:37:50;20.80;54.30
25154;DHT22;47555;51.038;6.280;2023-07-22T08:40:15;21.00;52.30
25154;DHT22;47555;51.038;6.280;2023-07-22T08:42:41;21.00;49.40
25154;DHT22;47555;51.038;6.280;2023-07-22T08:45:09;21.00;47.80
25154;DHT22;47555;51.038;6.280;2023-07-22T08:47:40;20.90;49.10
25154;DHT22;47555;51.038;6.280;2023-07-22T08:50:08;20.80;49.50
25154;DHT22;47555;51.038;6.280;2023-07-22T08:52:34;20.80;47.30
25154;DHT22;47555;51.038;6.280;2023-07-22T08:55:01;20.80;47.50
25154;DHT22;47555;51.038;6.280;2023-07-22T08:57:30;20.80;47.10
25154;DHT22;47555;51.038;6.280;2023-07-22T08:59:57;20.70;45.70
25154;DHT22;47555;51.038;6.280;2023-07-22T09:02:24;20.60;45.30
25154;DHT22;47555;51.038;6.280;2023-07-22T09:04:50;20.50;44.80
25154;DHT22;47555;51.038;6.280;2023-07-22T09:07:16;20.50;45.60
25154;DHT22;47555;51.038;6.280;2023-07-22T09:09:44;20.50;44.50
25154;DHT22;47555;51.038;6.280;2023-07-22T09:12:11;20.40;47.50
25154;DHT22;47555;51.038;6.280;2023-07-22T09:14:38;20.60;49.60
25154;DHT22;47555;51.038;6.280;2023-07-22T09:17:04;20.80;47.00
25154;DHT22;47555;51.038;6.280;2023-07-22T09:19:31;21.10;42.10
25154;DHT22;47555;51.038;6.280;2023-07-22T09:21:56;21.30;38.20
25154;DHT22;47555;51.038;6.280;2023-07-22T09:24:25;21.40;39.10
25154;DHT22;47555;51.038;6.280;2023-07-22T09:26:51;21.60;36.90
25154;DHT22;47555;51.038;6.280;2023-07-22T09:29:17;21.60;35.70
25154;DHT22;47555;51.038;6.280;2023-07-22T09:31:51;21.70;36.00
25154;DHT22;47555;51.038;6.280;2023-07-22T09:34:17;21.70;35.90
25154;DHT22;47555;51.038;6.280;2023-07-22T09:36:53;21.70;36.20
25154;DHT22;47555;51.038;6.280;2023-07-22T09:39:20;21.50;33.90
25154;DHT22;47555;51.038;6.280;2023-07-22T09:41:46;21.50;36.50
25154;DHT22;47555;51.038;6.280;2023-07-22T09:44:12;21.50;36.50
25154;DHT22;47555;51.038;6.280;2023-07-22T09:46:38;21.60;36.20
25154;DHT22;47555;51.038;6.280;2023-07-22T09:49:08;21.60;33.60
25154;DHT22;47555;51.038;6.280;2023-07-22T09:51:41;21.60;34.10
25154;DHT22;47555;51.038;6.280;2023-07-22T09:54:07;21.60;34.10
25154;DHT22;47555;51.038;6.280;2023-07-22T09:56:44;21.50;33.40
25154;DHT22;47555;51.038;6.280;2023-07-22T09:59:10;21.40;32.40
25154;DHT22;47555;51.038;6.280;2023-07-22T10:01:38;21.30;33.30
25154;DHT22;47555;51.038;6.280;2023-07-22T10:04:05;21.20;32.60
25154;DHT22;47555;51.038;6.280;2023-07-22T10:06:31;21.20;32.50
25154;DHT22;47555;51.038;6.280;2023-07-22T10:09:04;21.20;33.60
25154;DHT22;47555;51.038;6.280;2023-07-22T10:11:34;21.30;34.80
25154;DHT22;47555;51.038;6.280;2023-07-22T10:14:02;21.60;32.50
25154;DHT22;47555;51.038;6.280;2023-07-22T10:16:28;21.60;33.90
25154;DHT22;47555;51.038;6.280;2023-07-22T10:18:55;21.70;32.50
25154;DHT22;47555;51.038;6.280;2023-07-22T10:21:22;21.90;32.30
25154;DHT22;47555;51.038;6.280;2023-07-22T10:23:48;22.00;31.60
25154;DHT22;47555;51.038;6.280;2023-07-22T10:26:20;22.20;31.50
25154;DHT22;47555;51.038;6.280;2023-07-22T10:28:47;22.40;32.20
25154;DHT22;47555;51.038;6.280;2023-07-22T10:31:16;22.60;30.60
25154;DHT22;47555;51.038;6.280;2023-07-22T10:33:51;22.70;28.90
25154;DHT22;47555;51.038;6.280;2023-07-22T10:36:17;22.90;28.90
25154;DHT22;47555;51.038;6.280;2023-07-22T10:38:43;23.00;27.70
25154;DHT22;47555;51.038;6.280;2023-07-22T10:41:16;22.90;28.90
25154;DHT22;47555;51.038;6.280;2023-07-22T10:43:53;22.90;27.90
25154;DHT22;47555;51.038;6.280;2023-07-22T10:46:31;22.90;28.50
25154;DHT22;47555;51.038;6.280;2023-07-22T10:49:13;22.90;27.50
25154;DHT22;47555;51.038;6.280;2023-07-22T10:54:41;23.30;27.80
25154;DHT22;47555;51.038;6.280;2023-07-22T10:59:52;23.90;26.30
25154;DHT22;47555;51.038;6.280;2023-07-22T11:02:28;24.10;26.60
25154;DHT22;47555;51.038;6.280;2023-07-22T11:04:58;24.20;25.50
25154;DHT22;47555;51.038;6.280;2023-07-22T11:07:34;24.30;27.30
25154;DHT22;47555;51.038;6.280;2023-07-22T11:10:19;24.60;25.30
25154;DHT22;47555;51.038;6.280;2023-07-22T11:12:45;24.60;22.00
25154;DHT22;47555;51.038;6.280;2023-07-22T11:15:11;24.50;22.30
25154;DHT22;47555;51.038;6.280;2023-07-22T11:17:39;24.40;24.10
25154;DHT22;47555;51.038;6.280;2023-07-22T11:20:05;24.40;24.20
25154;DHT22;47555;51.038;6.280;2023-07-22T11:22:31;24.40;22.90
25154;DHT22;47555;51.038;6.280;2023-07-22T11:24:57;24.50;24.40
25154;DHT22;47555;51.038;6.280;2023-07-22T11:27:25;24.60;24.40
25154;DHT22;47555;51.038;6.280;2023-07-22T11:29:51;24.70;21.00
25154;DHT22;47555;51.038;6.280;2023-07-22T11:32:18;24.80;20.90
25154;DHT22;47555;51.038;6.280;2023-07-22T11:34:46;25.00;20.00
25154;DHT22;47555;51.038;6.280;2023-07-22T11:37:12;25.10;19.60
25154;DHT22;47555;51.038;6.280;2023-07-22T11:39:38;25.10;18.30
25154;DHT22;47555;51.038;6.280;2023-07-22T11:42:04;25.20;16.90
25154;DHT22;47555;51.038;6.280;2023-07-22T11:44:31;25.10;16.70
25154;DHT22;47555;51.038;6.280;2023-07-22T11:47:07;25.10;17.30
25154;DHT22;47555;51.038;6.280;2023-07-22T11:49:38;25.20;17.80
25154;DHT22;47555;51.038;6.280;2023-07-22T11:52:06;25.30;17.20
25154;DHT22;47555;51.038;6.280;2023-07-22T11:54:45;25.40;17.30
25154;DHT22;47555;51.038;6.280;2023-07-22T11:57:14;25.60;17.40
25154;DHT22;47555;51.038;6.280;2023-07-22T11:59:44;25.70;19.10
25154;DHT22;47555;51.038;6.280;2023-07-22T12:02:15;25.90;20.20
25154;DHT22;47555;51.038;6.280;2023-07-22T12:04:42;25.80;19.80
25154;DHT22;47555;51.038;6.280;2023-07-22T12:07:28;25.90;19.90
25154;DHT22;47555;51.038;6.280;2023-07-22T12:09:56;25.80;19.40
25154;DHT22;47555;51.038;6.280;2023-07-22T12:12:41;25.70;21.00
25154;DHT22;47555;51.038;6.280;2023-07-22T12:15:15;25.60;20.80
25154;DHT22;47555;51.038;6.280;2023-07-22T12:17:46;25.60;21.20
25154;DHT22;47555;51.038;6.280;2023-07-22T12:20:12;25.70;21.10
25154;DHT22;47555;51.038;6.280;2023-07-22T12:22:37;25.80;19.40
25154;DHT22;47555;51.038;6.280;2023-07-22T12:25:03;25.90;19.90
25154;DHT22;47555;51.038;6.280;2023-07-22T12:27:29;25.90;19.50
25154;DHT22;47555;51.038;6.280;2023-07-22T12:29:54;26.00;19.50
25154;DHT22;47555;51.038;6.280;2023-07-22T12:32:20;26.00;19.70
25154;DHT22;47555;51.038;6.280;2023-07-22T12:34:45;25.90;19.30
25154;DHT22;47555;51.038;6.280;2023-07-22T12:37:11;25.90;19.40
25154;DHT22;47555;51.038;6.280;2023-07-22T12:39:36;25.80;19.10
25154;DHT22;47555;51.038;6.280;2023-07-22T12:42:02;25.80;19.50
25154;DHT22;47555;51.038;6.280;2023-07-22T12:44:28;25.90;20.10
25154;DHT22;47555;51.038;6.280;2023-07-22T12:46:53;25.90;20.00
25154;DHT22;47555;51.038;6.280;2023-07-22T12:49:19;26.00;21.80
25154;DHT22;47555;51.038;6.280;2023-07-22T12:51:45;26.10;20.00
25154;DHT22;47555;51.038;6.280;2023-07-22T12:54:10;26.10;19.70
25154;DHT22;47555;51.038;6.280;2023-07-22T12:56:36;25.80;19.50
25154;DHT22;47555;51.038;6.280;2023-07-22T12:59:02;25.70;20.50
25154;DHT22;47555;51.038;6.280;2023-07-22T13:01:27;25.50;21.10
25154;DHT22;47555;51.038;6.280;2023-07-22T13:03:53;25.40;21.30
25154;DHT22;47555;51.038;6.280;2023-07-22T13:06:18;25.40;21.50
25154;DHT22;47555;51.038;6.280;2023-07-22T13:08:44;25.40;22.40
25154;DHT22;47555;51.038;6.280;2023-07-22T13:11:09;25.50;20.70
25154;DHT22;47555;51.038;6.280;2023-07-22T13:13:35;25.40;22.00
25154;DHT22;47555;51.038;6.280;2023-07-22T13:16:00;25.30;21.30
25154;DHT22;47555;51.038;6.280;2023-07-22T13:18:26;25.30;22.50
25154;DHT22;47555;51.038;6.280;2023-07-22T13:20:51;25.30;21.50
25154;DHT22;47555;51.038;6.280;2023-07-22T13:23:17;25.40;21.70
25154;DHT22;47555;51.038;6.280;2023-07-22T13:25:42;25.40;22.00
25154;DHT22;47555;51.038;6.280;2023-07-22T13:28:08;25.30;21.70
25154;DHT22;47555;51.038;6.280;2023-07-22T13:30:36;25.40;21.70
25154;DHT22;47555;51.038;6.280;2023-07-22T13:33:02;25.40;21.30
25154;DHT22;47555;51.038;6.280;2023-07-22T13:35:28;25.20;21.90
25154;DHT22;47555;51.038;6.280;2023-07-22T13:37:53;25.30;23.10
25154;DHT22;47555;51.038;6.280;2023-07-22T13:40:19;25.30;21.90
25154;DHT22;47555;51.038;6.280;2023-07-22T13:42:44;25.50;23.20
25154;DHT22;47555;51.038;6.280;2023-07-22T13:45:10;25.70;21.40
25154;DHT22;47555;51.038;6.280;2023-07-22T13:47:35;25.70;20.80
25154;DHT22;47555;51.038;6.280;2023-07-22T13:50:01;25.60;21.30
25154;DHT22;47555;51.038;6.280;2023-07-22T13:52:27;25.40;21.70
25154;DHT22;47555;51.038;6.280;2023-07-22T13:54:55;25.30;21.40
25154;DHT22;47555;51.038;6.280;2023-07-22T13:57:23;25.20;21.10
25154;DHT22;47555;51.038;6.280;2023-07-22T13:59:49;25.10;21.30
25154;DHT22;47555;51.038;6.280;2023-07-22T14:02:14;24.80;21.60
25154;DHT22;47555;51.038;6.280;2023-07-22T14:04:40;24.70;23.00
25154;DHT22;47555;51.038;6.280;2023-07-22T14:07:05;24.80;23.80
25154;DHT22;47555;51.038;6.280;2023-07-22T14:09:31;24.70;22.80
25154;DHT22;47555;51.038;6.280;2023-07-22T14:11:57;24.70;23.00
25154;DHT22;47555;51.038;6.280;2023-07-22T14:14:22;24.50;22.50
25154;DHT22;47555;51.038;6.280;2023-07-22T14:16:54;24.40;23.50
25154;DHT22;47555;51.038;6.280;2023-07-22T14:19:20;24.50;24.30
25154;DHT22;47555;51.038;6.280;2023-07-22T14:21:46;24.60;24.20
25154;DHT22;47555;51.038;6.280;2023-07-22T14:24:11;24.60;22.40
25154;DHT22;47555;51.038;6.280;2023-07-22T14:26:37;24.70;23.30
25154;DHT22;47555;51.038;6.280;2023-07-22T14:29:02;24.60;22.30
25154;DHT22;47555;51.038;6.280;2023-07-22T14:31:28;24.50;22.60
25154;DHT22;47555;51.038;6.280;2023-07-22T14:33:53;24.60;23.60
25154;DHT22;47555;51.038;6.280;2023-07-22T14:36:19;24.80;23.00
25154;DHT22;47555;51.038;6.280;2023-07-22T14:38:44;25.00;22.00
25154;DHT22;47555;51.038;6.280;2023-07-22T14:41:10;25.00;22.50
25154;DHT22;47555;51.038;6.280;2023-07-22T14:43:36;25.10;22.30
25154;DHT22;47555;51.038;6.280;2023-07-22T14:46:02;25.10;22.30
25154;DHT22;47555;51.038;6.280;2023-07-22T14:48:27;24.90;22.70
25154;DHT22;47555;51.038;6.280;2023-07-22T14:50:53;24.70;22.60
25154;DHT22;47555;51.038;6.280;2023-07-22T14:53:21;24.50;23.60
25154;DHT22;47555;51.038;6.280;2023-07-22T14:55:47;24.50;23.50
25154;DHT22;47555;51.038;6.280;2023-07-22T14:58:12;24.60;23.30
25154;DHT22;47555;51.038;6.280;2023-07-22T15:00:38;24.50;22.80
25154;DHT22;47555;51.038;6.280;2023-07-22T15:03:03;24.40;23.30
25154;DHT22;47555;51.038;6.280;2023-07-22T15:05:29;24.40;23.90
25154;DHT22;47555;51.038;6.280;2023-07-22T15:07:54;24.40;24.10
25154;DHT22;47555;51.038;6.280;2023-07-22T15:10:20;24.50;23.30
25154;DHT22;47555;51.038;6.280;2023-07-22T15:12:46;24.50;22.90
25154;DHT22;47555;51.038;6.280;2023-07-22T15:15:12;24.30;23.40
25154;DHT22;47555;51.038;6.280;2023-07-22T15:17:41;24.20;23.90
25154;DHT22;47555;51.038;6.280;2023-07-22T15:20:07;24.00;24.50
25154;DHT22;47555;51.038;6.280;2023-07-22T15:22:33;23.90;24.40
25154;DHT22;47555;51.038;6.280;2023-07-22T15:24:58;23.80;25.00
25154;DHT22;47555;51.038;6.280;2023-07-22T15:27:24;23.80;25.60
25154;DHT22;47555;51.038;6.280;2023-07-22T15:29:49;23.80;25.70
25154;DHT22;47555;51.038;6.280;2023-07-22T15:32:15;23.80;24.90
25154;DHT22;47555;51.038;6.280;2023-07-22T15:34:43;23.70;23.80